Monument, CO

1:07 AM MST on March 01, 2015 (GMT -0700)
City Of Colorado Springs Municipal | Change Station
CLOSE
Current Station
Airport
Location: Colorado Springs,
Elevation: 6171 ft
Nearby Weather Stations

Elev 6171 ft 38.81 °N, 104.69 °W | Updated 13 minutes ago

Overcast
Overcast
14 °F
Feels Like 14 °F
N
0
Wind Variable Wind from North

Today
High -- | Low -- °F
--% Chance of Precip.
Yesterday
High -- | Low -- °F
Precip. -- in
6:32 AM 5:51 PM
Waxing Gibbous, 83% visible
Pressure 30.21 in
Visibility 4.0 miles
Clouds Mostly Cloudy 1300 ft
Dew Point 11 °F
Humidity 88%
Rainfall 0.00 in
Snow Depth Not available.
UV 0 out of 12
Pollen .70 out of 12
Air Quality Not available.
Flu Activity Not available.
METAR KCOS 010754Z 00000KT 4SM BR BKN013 M10/M12 A2999 RMK AO2 SLP229 T11001117

More Conditions Fewer Conditions

Pressure 30.21 in
Visibility 4.0 miles
Clouds Mostly Cloudy 1300 ft
Dew Point 11 °F
Humidity 88%
Rainfall 0.00 in
Snow Depth Not available.
UV 0 out of 12
Pollen .70 out of 12
Air Quality Not available.
Flu Activity Not available.
METAR KCOS 010754Z 00000KT 4SM BR BKN013 M10/M12 A2999 RMK AO2 SLP229 T11001117

More Conditions Fewer Conditions

10-Day Weather Forecast

Almanac

Astronomy

Mar. 01, 2015 Rise Set
Actual Time
Civil Twilight
Nautical Twilight
Astronomical Twilight
Moon
Length of Visible Light
Length of Day
Tomorrow will be .
, % of the Moon is Illuminated

Today's Extremes

State Highs State Lows

Community

WunderPhotos

Upload Photos

1,801,350 photos uploaded!

WunderBlogs® & News

Nearby

Air Quality

  Air Quality AQ Index Pollutant
Not available.

Snow Depth

Station Depth Elevation

Earthquake Activity

City Distance Mag. Time & Date
Minimum magnitude displayed is 2.5.

Coastal Water Temperatures

Place Temperature

Nearby Weather Stations